Fowlerville, Michigan
Current Conditions -  °F | °C
As of 10:35 AM on Saturday 22 Nov 2014 (Local Time) from KOZW Reporting Station
Haze Haze  
Wind Chill: 28°   Ceiling: 1000
Heat Index: 36°   Visibility: 5mi
Dew Point: 35°   Wind: 10mph
Humidity: 96%   Direction: 210°SSW
Pressure: 30.03"   Gusts: NA
Location:  42.66°N, 84.07°W
Report Text: KOZW 221535Z AUTO 21009KT 5SM BR OVC010 02/01 A3003 RMK AO2 T00200014
Loading
Personal Weather Stations






























Interactive Weather Map New forecast layout! Learn more

10-Day Weather Forecast

Advertisements
Track Severe Weather on mobile